Terminal Aerodrome Forecast
Issued by NWS

Home | Current Version | Previous Version | Text Only | Print | Product List | Glossary On
Versions: 1 2 3 4 5 6 7 8 9 10 11 12 13 14 15
000
FTUS46 KPDT 190500
TAFDLS
TAF
KDLS 190525Z 1906/2006 31005KT P6SM BKN200
     FM191500 30008KT P6SM BKN100
     FM192000 31020G30KT P6SM BKN040=

USA.gov is the U.S. government's official web portal to all federal, state and local government web resources and services.